Time;durP1;ratioP1;P1;durP2;ratioP2;P2;SDS_P1;SDS_P2;PMS_P1;PMS_P2;Temp;Humidity;BMP_temperature;BMP_pressure;BME280_temperature;BME280_humidity;BME280_pressure;Samples;Min_cycle;Max_cycle;Signal;HPM_P1;HPM_P2
2023/04/29 00:01:12;;;;;;;4.57;4.27;;;;;;;;;;5084738;28;20181;-78
2023/04/29 00:03:38;;;;;;;4.47;4.07;;;;;;;;;;5090683;28;20198;-78
2023/04/29 00:06:03;;;;;;;4.70;4.30;;;;;;;;;;5084081;28;20173;-78
2023/04/29 00:08:28;;;;;;;4.90;4.50;;;;;;;;;;5083419;28;20185;-78
2023/04/29 00:10:54;;;;;;;5.80;4.80;;;;;;;;;;5080270;28;20235;-78
2023/04/29 00:13:25;;;;;;;5.17;4.67;;;;;;;;;;5087578;28;20270;-78
2023/04/29 00:15:50;;;;;;;5.63;4.40;;;;;;;;;;5080818;28;20180;-78
2023/04/29 00:18:15;;;;;;;5.57;4.47;;;;;;;;;;5088268;28;20180;-78
2023/04/29 00:20:42;;;;;;;4.93;4.43;;;;;;;;;;5082965;28;20180;-78
2023/04/29 00:23:07;;;;;;;5.03;4.63;;;;;;;;;;5086980;28;20191;-78
2023/04/29 00:25:32;;;;;;;5.27;4.80;;;;;;;;;;5080496;28;20179;-78
2023/04/29 00:28:00;;;;;;;5.17;4.67;;;;;;;;;;5088397;28;20291;-78
2023/04/29 00:30:26;;;;;;;5.83;5.23;;;;;;;;;;5084711;28;20201;-78
2023/04/29 00:32:52;;;;;;;4.93;4.43;;;;;;;;;;5076298;28;20318;-78
2023/04/29 00:35:17;;;;;;;5.80;5.30;;;;;;;;;;5085510;28;20173;-78
2023/04/29 00:37:42;;;;;;;5.07;4.67;;;;;;;;;;5088767;28;20177;-78
2023/04/29 00:40:08;;;;;;;5.57;5.10;;;;;;;;;;5086044;28;20226;-78
2023/04/29 00:42:33;;;;;;;4.77;4.37;;;;;;;;;;5084891;28;20176;-78
2023/04/29 00:44:59;;;;;;;5.93;5.33;;;;;;;;;;5091662;28;20181;-78
2023/04/29 00:47:24;;;;;;;5.67;5.17;;;;;;;;;;5082940;28;20266;-78
2023/04/29 00:49:49;;;;;;;5.37;4.87;;;;;;;;;;5081810;28;20209;-78
2023/04/29 00:52:15;;;;;;;5.60;5.07;;;;;;;;;;5084155;28;20173;-78
2023/04/29 00:54:40;;;;;;;5.47;4.50;;;;;;;;;;5085790;28;20180;-78
2023/04/29 00:57:06;;;;;;;4.23;3.83;;;;;;;;;;5086846;28;20166;-78
2023/04/29 00:59:32;;;;;;;8.87;4.03;;;;;;;;;;5089066;28;20183;-78
2023/04/29 01:02:03;;;;;;;5.47;4.63;;;;;;;;;;5080493;28;20199;-78
2023/04/29 01:04:31;;;;;;;4.73;3.90;;;;;;;;;;5086743;28;20203;-78
2023/04/29 01:07:02;;;;;;;4.70;4.30;;;;;;;;;;5094077;28;20175;-78
2023/04/29 01:09:42;;;;;;;5.87;4.97;;;;;;;;;;5083204;28;20202;-78
2023/04/29 01:12:11;;;;;;;4.97;4.57;;;;;;;;;;5083635;28;20178;-78
2023/04/29 01:14:37;;;;;;;5.10;4.70;;;;;;;;;;5093435;28;20182;-78
2023/04/29 01:17:10;;;;;;;5.77;5.10;;;;;;;;;;5095319;28;20172;-78
2023/04/29 01:19:39;;;;;;;6.00;5.43;;;;;;;;;;5082519;28;20244;-78
2023/04/29 01:22:04;;;;;;;5.23;4.83;;;;;;;;;;5088469;28;20198;-78
2023/04/29 01:24:29;;;;;;;5.77;5.27;;;;;;;;;;5075837;28;20186;-78
2023/04/29 01:26:56;;;;;;;8.10;5.50;;;;;;;;;;5083378;28;20288;-78
2023/04/29 01:29:27;;;;;;;6.10;5.50;;;;;;;;;;5079679;28;20210;-78
2023/04/29 01:32:07;;;;;;;6.03;5.37;;;;;;;;;;5084488;28;20215;-78
2023/04/29 01:34:38;;;;;;;6.10;5.50;;;;;;;;;;5098615;28;20174;-78
2023/04/29 01:37:09;;;;;;;5.83;5.33;;;;;;;;;;5084080;28;20264;-78
2023/04/29 01:39:34;;;;;;;6.00;5.50;;;;;;;;;;5086020;28;20175;-78
2023/04/29 01:42:07;;;;;;;6.00;5.00;;;;;;;;;;5084867;28;20278;-78
2023/04/29 01:44:32;;;;;;;6.80;5.00;;;;;;;;;;5080684;28;20183;-78
2023/04/29 01:46:58;;;;;;;5.07;4.67;;;;;;;;;;5082569;28;20180;-78
2023/04/29 01:49:24;;;;;;;5.60;5.10;;;;;;;;;;5083948;28;20248;-78
2023/04/29 01:51:49;;;;;;;5.63;5.23;;;;;;;;;;5085929;28;20249;-78
2023/04/29 01:54:14;;;;;;;5.47;4.97;;;;;;;;;;5098417;28;20184;-78
2023/04/29 01:56:40;;;;;;;5.37;4.87;;;;;;;;;;5084464;28;20176;-78
2023/04/29 01:59:07;;;;;;;5.47;4.40;;;;;;;;;;5083741;28;20173;-79
2023/04/29 02:01:32;;;;;;;4.87;4.17;;;;;;;;;;5090005;28;20180;-78
2023/04/29 02:03:58;;;;;;;5.73;3.83;;;;;;;;;;5085701;28;20205;-79
2023/04/29 02:06:23;;;;;;;4.17;3.87;;;;;;;;;;5086775;28;20213;-78
2023/04/29 02:08:48;;;;;;;4.07;3.77;;;;;;;;;;5088634;28;20183;-78
2023/04/29 02:11:14;;;;;;;4.03;3.63;;;;;;;;;;5081877;28;20177;-78
2023/04/29 02:13:39;;;;;;;4.47;3.60;;;;;;;;;;5079234;28;20181;-78
2023/04/29 02:16:08;;;;;;;3.77;3.47;;;;;;;;;;5082657;28;20194;-78
2023/04/29 02:18:33;;;;;;;3.50;3.20;;;;;;;;;;5085933;28;20169;-78
2023/04/29 02:20:59;;;;;;;3.67;3.37;;;;;;;;;;5083306;28;20198;-78
2023/04/29 02:23:24;;;;;;;3.33;2.83;;;;;;;;;;5088729;28;20277;-78
2023/04/29 02:25:50;;;;;;;3.30;3.00;;;;;;;;;;5082930;28;20286;-78
2023/04/29 02:28:16;;;;;;;3.83;2.87;;;;;;;;;;5083109;28;20236;-78
2023/04/29 02:30:41;;;;;;;3.97;3.63;;;;;;;;;;5093260;28;20350;-78
2023/04/29 02:33:07;;;;;;;4.60;2.80;;;;;;;;;;5083832;28;20170;-78
2023/04/29 02:35:32;;;;;;;3.20;2.90;;;;;;;;;;5088865;28;20176;-78
2023/04/29 02:37:57;;;;;;;3.63;3.33;;;;;;;;;;5090958;28;20172;-78
2023/04/29 02:40:24;;;;;;;3.87;3.17;;;;;;;;;;5093725;28;20275;-79
2023/04/29 02:42:49;;;;;;;3.30;3.07;;;;;;;;;;5092346;28;20188;-78
2023/04/29 02:45:14;;;;;;;3.10;2.80;;;;;;;;;;5081507;28;20181;-78
2023/04/29 02:47:40;;;;;;;3.37;3.03;;;;;;;;;;5089884;28;20180;-78
2023/04/29 02:50:05;;;;;;;4.03;3.57;;;;;;;;;;5090658;28;20208;-78
2023/04/29 02:52:30;;;;;;;3.60;3.30;;;;;;;;;;5091810;28;20181;-78
2023/04/29 02:54:56;;;;;;;4.27;3.43;;;;;;;;;;5093816;28;20224;-78
2023/04/29 02:57:21;;;;;;;3.53;3.23;;;;;;;;;;5105087;28;20176;-79
2023/04/29 02:59:46;;;;;;;6.00;4.30;;;;;;;;;;5091580;28;20169;-78
2023/04/29 03:02:11;;;;;;;6.20;4.03;;;;;;;;;;5091231;28;20199;-78
2023/04/29 03:04:38;;;;;;;3.83;3.53;;;;;;;;;;5083953;28;20187;-78
2023/04/29 03:07:04;;;;;;;4.00;3.57;;;;;;;;;;5087131;28;20181;-78
2023/04/29 03:09:29;;;;;;;4.33;3.93;;;;;;;;;;5093173;28;20264;-78
2023/04/29 03:11:55;;;;;;;4.10;3.80;;;;;;;;;;5086992;28;20173;-78
2023/04/29 03:14:20;;;;;;;4.27;3.87;;;;;;;;;;5087422;28;20226;-78
2023/04/29 03:16:45;;;;;;;4.73;4.33;;;;;;;;;;5078954;28;20180;-78
2023/04/29 03:19:10;;;;;;;4.30;3.90;;;;;;;;;;5088402;28;20169;-78
2023/04/29 03:21:36;;;;;;;4.17;3.87;;;;;;;;;;5088949;28;20185;-78
2023/04/29 03:24:01;;;;;;;4.63;4.03;;;;;;;;;;5082993;28;20177;-78
2023/04/29 03:26:26;;;;;;;4.13;3.83;;;;;;;;;;5094851;28;20280;-78
2023/04/29 03:28:52;;;;;;;4.23;3.83;;;;;;;;;;5087006;28;20248;-78
2023/04/29 03:31:19;;;;;;;5.67;3.70;;;;;;;;;;5093150;28;20165;-78
2023/04/29 03:33:45;;;;;;;4.80;3.77;;;;;;;;;;5081452;28;20173;-78
2023/04/29 03:36:10;;;;;;;5.17;4.30;;;;;;;;;;5091480;28;20229;-78
2023/04/29 03:38:35;;;;;;;4.57;3.83;;;;;;;;;;5090181;28;20184;-78
2023/04/29 03:41:01;;;;;;;4.40;4.10;;;;;;;;;;5085332;28;20219;-78
2023/04/29 03:43:26;;;;;;;4.57;4.23;;;;;;;;;;5082439;28;20190;-78
2023/04/29 03:45:51;;;;;;;4.83;4.43;;;;;;;;;;5084062;28;20241;-78
2023/04/29 03:48:17;;;;;;;4.80;4.37;;;;;;;;;;5087762;28;20275;-78
2023/04/29 03:50:42;;;;;;;4.93;4.43;;;;;;;;;;5084239;28;20235;-78
2023/04/29 03:53:07;;;;;;;5.43;4.97;;;;;;;;;;5089888;28;20176;-78
2023/04/29 03:55:33;;;;;;;5.27;4.77;;;;;;;;;;5088249;28;20293;-78
2023/04/29 03:57:58;;;;;;;5.93;5.47;;;;;;;;;;5089116;28;20211;-78
2023/04/29 04:00:25;;;;;;;5.90;5.50;;;;;;;;;;5084675;28;20267;-78
2023/04/29 04:02:50;;;;;;;5.27;4.87;;;;;;;;;;5090289;28;20208;-78
2023/04/29 04:05:18;;;;;;;5.90;5.40;;;;;;;;;;5084669;28;20188;-78
2023/04/29 04:07:43;;;;;;;6.43;5.93;;;;;;;;;;5089963;28;20183;-78
2023/04/29 04:10:08;;;;;;;7.33;5.73;;;;;;;;;;5103053;28;20215;-78
2023/04/29 04:12:34;;;;;;;5.20;4.73;;;;;;;;;;5089042;28;20191;-78
2023/04/29 04:14:59;;;;;;;5.53;5.03;;;;;;;;;;5083517;28;20188;-78
2023/04/29 04:17:24;;;;;;;7.73;5.67;;;;;;;;;;5090726;28;20175;-78
2023/04/29 04:19:49;;;;;;;5.73;5.23;;;;;;;;;;5086419;28;20240;-78
2023/04/29 04:22:15;;;;;;;5.43;4.97;;;;;;;;;;5101290;28;20195;-78
2023/04/29 04:24:41;;;;;;;6.03;5.47;;;;;;;;;;5078040;28;20181;-78
2023/04/29 04:27:06;;;;;;;5.47;5.07;;;;;;;;;;5088024;28;20179;-78
2023/04/29 04:29:31;;;;;;;4.77;4.37;;;;;;;;;;5082969;28;20291;-78
2023/04/29 04:31:56;;;;;;;5.93;5.43;;;;;;;;;;5080785;28;20173;-78
2023/04/29 04:34:21;;;;;;;6.37;5.87;;;;;;;;;;5074780;28;20183;-78
2023/04/29 04:36:47;;;;;;;9.03;8.10;;;;;;;;;;5103598;27;20185;-78
2023/04/29 04:39:12;;;;;;;6.23;5.70;;;;;;;;;;5100257;27;20230;-78
2023/04/29 04:41:37;;;;;;;6.20;5.60;;;;;;;;;;5088180;28;20191;-78
2023/04/29 04:44:03;;;;;;;6.50;5.87;;;;;;;;;;5085829;28;20180;-78
2023/04/29 04:46:28;;;;;;;6.43;5.93;;;;;;;;;;5080872;28;20229;-78
2023/04/29 04:48:53;;;;;;;6.27;5.73;;;;;;;;;;5087160;28;20191;-78
2023/04/29 04:51:19;;;;;;;7.70;6.97;;;;;;;;;;5086742;28;20167;-78
2023/04/29 04:53:45;;;;;;;5.53;4.97;;;;;;;;;;5083937;28;20179;-78
2023/04/29 04:56:10;;;;;;;6.27;5.67;;;;;;;;;;5086721;28;20221;-78
2023/04/29 04:58:35;;;;;;;6.20;5.70;;;;;;;;;;5085689;28;20210;-78
2023/04/29 05:01:01;;;;;;;5.90;5.40;;;;;;;;;;5079790;28;20230;-78
2023/04/29 05:03:26;;;;;;;6.10;5.60;;;;;;;;;;5093132;28;20211;-78
2023/04/29 05:05:55;;;;;;;5.43;5.03;;;;;;;;;;5084050;28;20176;-78
2023/04/29 05:08:20;;;;;;;5.60;5.10;;;;;;;;;;5084219;28;20278;-78
2023/04/29 05:10:45;;;;;;;5.80;5.20;;;;;;;;;;5082492;28;20337;-78
2023/04/29 05:13:11;;;;;;;5.33;4.93;;;;;;;;;;5101097;28;20210;-78
2023/04/29 05:15:36;;;;;;;5.10;4.60;;;;;;;;;;5082045;28;20186;-78
2023/04/29 05:18:01;;;;;;;4.70;4.40;;;;;;;;;;5085106;28;20252;-78
2023/04/29 05:20:26;;;;;;;4.43;4.13;;;;;;;;;;5082208;28;20283;-78
2023/04/29 05:22:51;;;;;;;5.17;4.67;;;;;;;;;;5078953;28;20502;-78
2023/04/29 05:25:17;;;;;;;5.23;4.60;;;;;;;;;;5082490;28;20317;-78
2023/04/29 05:27:42;;;;;;;4.43;4.03;;;;;;;;;;5077965;28;20284;-78
2023/04/29 05:30:07;;;;;;;3.60;3.30;;;;;;;;;;5090345;28;20227;-78
2023/04/29 05:32:33;;;;;;;4.93;3.70;;;;;;;;;;5086236;28;20296;-78
2023/04/29 05:34:58;;;;;;;4.17;3.87;;;;;;;;;;5086131;28;20243;-78
2023/04/29 05:37:23;;;;;;;4.40;3.73;;;;;;;;;;5080440;28;20164;-78
2023/04/29 05:39:48;;;;;;;4.03;3.73;;;;;;;;;;5082088;28;20179;-78
2023/04/29 05:42:13;;;;;;;4.87;3.77;;;;;;;;;;5074987;28;20180;-78
2023/04/29 05:44:39;;;;;;;4.23;3.93;;;;;;;;;;5082508;28;20219;-78
2023/04/29 05:47:04;;;;;;;4.60;4.30;;;;;;;;;;5084498;28;20184;-78
2023/04/29 05:49:29;;;;;;;4.77;4.03;;;;;;;;;;5104277;27;20208;-78
2023/04/29 05:51:55;;;;;;;5.57;3.90;;;;;;;;;;5096532;28;20175;-78
2023/04/29 05:54:20;;;;;;;4.03;3.73;;;;;;;;;;5085978;28;20175;-78
2023/04/29 05:56:45;;;;;;;4.37;3.97;;;;;;;;;;5083758;28;20191;-78
2023/04/29 05:59:10;;;;;;;4.67;4.37;;;;;;;;;;5079618;28;20181;-78
2023/04/29 06:01:36;;;;;;;4.30;3.90;;;;;;;;;;5090645;28;20275;-78
2023/04/29 06:04:01;;;;;;;4.63;4.23;;;;;;;;;;5084025;28;20400;-79
2023/04/29 06:06:27;;;;;;;5.23;4.73;;;;;;;;;;5102863;28;20171;-78
2023/04/29 06:08:52;;;;;;;5.10;4.60;;;;;;;;;;5086028;28;20175;-78
2023/04/29 06:11:17;;;;;;;5.43;4.93;;;;;;;;;;5082804;28;20172;-78
2023/04/29 06:13:43;;;;;;;6.23;5.33;;;;;;;;;;5087825;28;20242;-78
2023/04/29 06:16:09;;;;;;;5.57;4.27;;;;;;;;;;5077720;28;20190;-78
2023/04/29 06:18:34;;;;;;;5.80;5.20;;;;;;;;;;5082834;28;20179;-78
2023/04/29 06:20:59;;;;;;;4.80;4.40;;;;;;;;;;5077633;28;20190;-78
2023/04/29 06:23:25;;;;;;;5.33;4.53;;;;;;;;;;5082736;28;20275;-78
2023/04/29 06:25:50;;;;;;;6.03;4.53;;;;;;;;;;5086843;28;20200;-78
2023/04/29 06:28:16;;;;;;;5.53;5.13;;;;;;;;;;5092220;28;20220;-78
2023/04/29 06:30:41;;;;;;;3.93;3.60;;;;;;;;;;5085413;28;20274;-78
2023/04/29 06:33:07;;;;;;;4.93;4.47;;;;;;;;;;5083294;28;20216;-78
2023/04/29 06:35:32;;;;;;;4.80;4.40;;;;;;;;;;5089600;28;20264;-78
2023/04/29 06:37:57;;;;;;;4.73;4.23;;;;;;;;;;5083577;28;20188;-79
2023/04/29 06:40:23;;;;;;;4.33;3.93;;;;;;;;;;5085080;28;20232;-79
2023/04/29 06:42:48;;;;;;;4.33;3.93;;;;;;;;;;5082087;28;20185;-78
2023/04/29 06:45:13;;;;;;;4.60;4.13;;;;;;;;;;5094508;28;20186;-78
2023/04/29 06:47:39;;;;;;;9.57;7.43;;;;;;;;;;5092171;28;20187;-78
2023/04/29 06:50:04;;;;;;;3.87;3.57;;;;;;;;;;5081698;28;20204;-78
2023/04/29 06:52:30;;;;;;;4.23;3.83;;;;;;;;;;5073667;28;20188;-78
2023/04/29 06:54:56;;;;;;;4.60;4.00;;;;;;;;;;5085233;28;20180;-79
2023/04/29 06:57:24;;;;;;;4.33;3.60;;;;;;;;;;5084854;28;20195;-78
2023/04/29 06:59:49;;;;;;;3.93;3.63;;;;;;;;;;5088906;28;20180;-78
2023/04/29 07:02:15;;;;;;;3.80;3.50;;;;;;;;;;5103864;28;20199;-78
2023/04/29 07:04:40;;;;;;;3.70;3.30;;;;;;;;;;5083396;28;20234;-78
2023/04/29 07:07:05;;;;;;;3.47;3.17;;;;;;;;;;5092130;28;20176;-78
2023/04/29 07:09:30;;;;;;;4.40;4.00;;;;;;;;;;5096981;28;20272;-78
2023/04/29 07:11:56;;;;;;;3.57;3.27;;;;;;;;;;5082592;28;20188;-78
2023/04/29 07:14:21;;;;;;;3.63;3.33;;;;;;;;;;5084825;28;20252;-78
2023/04/29 07:16:47;;;;;;;4.70;2.97;;;;;;;;;;5078706;28;20180;-79
2023/04/29 07:19:12;;;;;;;3.67;3.37;;;;;;;;;;5079372;28;20231;-79
2023/04/29 07:21:37;;;;;;;3.30;3.03;;;;;;;;;;5087266;28;20184;-78
2023/04/29 07:24:03;;;;;;;4.03;3.10;;;;;;;;;;5089967;28;20271;-79
2023/04/29 07:26:29;;;;;;;7.33;3.07;;;;;;;;;;5104215;28;20200;-79
2023/04/29 07:28:54;;;;;;;3.03;2.83;;;;;;;;;;5085392;28;20255;-79
2023/04/29 07:31:19;;;;;;;3.00;2.70;;;;;;;;;;5087879;28;20300;-79
2023/04/29 07:33:46;;;;;;;3.97;2.70;;;;;;;;;;5088289;28;20187;-79
2023/04/29 07:36:11;;;;;;;2.70;2.50;;;;;;;;;;5087421;28;20165;-79
2023/04/29 07:38:36;;;;;;;2.70;2.50;;;;;;;;;;5089879;28;20176;-79
2023/04/29 07:41:03;;;;;;;3.23;2.97;;;;;;;;;;5083667;28;20187;-78
2023/04/29 07:43:28;;;;;;;2.70;2.50;;;;;;;;;;5082137;28;20175;-79
2023/04/29 07:45:53;;;;;;;2.80;2.60;;;;;;;;;;5090473;28;20196;-79
2023/04/29 07:48:20;;;;;;;2.70;2.50;;;;;;;;;;5090709;28;20211;-79
2023/04/29 07:50:45;;;;;;;3.00;2.30;;;;;;;;;;5082924;28;20274;-78
2023/04/29 07:53:10;;;;;;;2.30;2.20;;;;;;;;;;5089110;28;20238;-78
2023/04/29 07:55:36;;;;;;;2.20;2.10;;;;;;;;;;5083335;28;20185;-79
2023/04/29 07:58:01;;;;;;;2.30;2.20;;;;;;;;;;5083040;28;20179;-78
2023/04/29 08:00:27;;;;;;;2.03;1.90;;;;;;;;;;5087568;28;20177;-78
2023/04/29 08:02:55;;;;;;;2.27;2.07;;;;;;;;;;5088001;28;20202;-78
2023/04/29 08:05:20;;;;;;;2.37;2.10;;;;;;;;;;5082108;28;20184;-78
2023/04/29 08:07:47;;;;;;;2.80;2.60;;;;;;;;;;5086512;28;20177;-79
2023/04/29 08:10:12;;;;;;;2.40;2.20;;;;;;;;;;5080077;28;20191;-79
2023/04/29 08:12:38;;;;;;;3.13;2.53;;;;;;;;;;5082697;28;20166;-79
2023/04/29 08:15:04;;;;;;;2.33;2.20;;;;;;;;;;5090133;28;20259;-78
2023/04/29 08:17:29;;;;;;;4.30;2.93;;;;;;;;;;5101686;27;20209;-79
2023/04/29 08:19:54;;;;;;;3.10;2.80;;;;;;;;;;5084208;28;20181;-79
2023/04/29 08:22:19;;;;;;;3.33;2.87;;;;;;;;;;5089344;28;20181;-79
2023/04/29 08:24:44;;;;;;;2.60;2.40;;;;;;;;;;5085001;28;20178;-78
2023/04/29 08:27:10;;;;;;;2.90;2.70;;;;;;;;;;5108551;27;20243;-78
2023/04/29 08:29:35;;;;;;;3.03;2.83;;;;;;;;;;5081697;28;20209;-78
2023/04/29 08:32:00;;;;;;;3.30;3.00;;;;;;;;;;5084076;28;20175;-78
2023/04/29 08:34:26;;;;;;;3.43;3.13;;;;;;;;;;5085418;28;20178;-79
2023/04/29 08:36:51;;;;;;;3.60;3.30;;;;;;;;;;5082429;28;20191;-79
2023/04/29 08:39:16;;;;;;;4.07;2.53;;;;;;;;;;5102586;27;20169;-78
2023/04/29 08:41:48;;;;;;;3.60;3.30;;;;;;;;;;5086500;28;20213;-79
2023/04/29 08:44:13;;;;;;;3.70;3.40;;;;;;;;;;5100119;27;20243;-79
2023/04/29 08:46:39;;;;;;;7.07;3.17;;;;;;;;;;5080759;28;20172;-79
2023/04/29 08:49:05;;;;;;;3.27;3.00;;;;;;;;;;5081676;28;20307;-78
2023/04/29 08:51:32;;;;;;;3.53;3.23;;;;;;;;;;5091073;28;20180;-79
2023/04/29 08:53:57;;;;;;;3.83;3.53;;;;;;;;;;5083073;28;20178;-79
2023/04/29 08:56:23;;;;;;;4.87;4.00;;;;;;;;;;5101535;28;20183;-79
2023/04/29 08:58:53;;;;;;;5.10;4.13;;;;;;;;;;5074915;28;20181;-79
2023/04/29 09:01:19;;;;;;;4.43;4.03;;;;;;;;;;5082891;28;20193;-79
2023/04/29 09:04:02;;;;;;;4.23;3.83;;;;;;;;;;5083031;28;20235;-79
2023/04/29 09:06:29;;;;;;;4.90;3.80;;;;;;;;;;5088067;28;20174;-78
2023/04/29 09:08:54;;;;;;;3.97;3.67;;;;;;;;;;5088634;28;20173;-79
2023/04/29 09:11:20;;;;;;;3.93;3.53;;;;;;;;;;5091782;28;20217;-79
2023/04/29 09:13:45;;;;;;;4.27;3.87;;;;;;;;;;5081326;28;20181;-78
2023/04/29 09:16:11;;;;;;;4.33;3.97;;;;;;;;;;5079873;28;20212;-79
2023/04/29 09:18:45;;;;;;;4.33;3.93;;;;;;;;;;5079164;28;20178;-79
2023/04/29 09:21:14;;;;;;;4.10;3.70;;;;;;;;;;5083343;28;20222;-78
2023/04/29 09:23:39;;;;;;;4.87;4.47;;;;;;;;;;5086164;28;20215;-79
2023/04/29 09:26:05;;;;;;;4.07;3.77;;;;;;;;;;5080603;28;20209;-78
2023/04/29 09:28:30;;;;;;;4.47;4.00;;;;;;;;;;5081906;28;20311;-78
2023/04/29 09:30:55;;;;;;;7.60;3.90;;;;;;;;;;5074336;28;20293;-78
2023/04/29 09:33:21;;;;;;;4.53;4.13;;;;;;;;;;5079866;28;20173;-79
2023/04/29 09:35:47;;;;;;;5.17;4.10;;;;;;;;;;5090435;28;20167;-79
2023/04/29 09:38:13;;;;;;;4.90;4.50;;;;;;;;;;5100984;28;20254;-78
2023/04/29 09:40:40;;;;;;;4.67;4.27;;;;;;;;;;5088935;28;20208;-79
2023/04/29 09:43:12;;;;;;;4.77;4.27;;;;;;;;;;5080991;28;20175;-79
2023/04/29 09:45:38;;;;;;;4.37;3.97;;;;;;;;;;5079457;28;20182;-78
2023/04/29 09:48:03;;;;;;;4.90;4.40;;;;;;;;;;5079402;28;20189;-78
2023/04/29 09:50:29;;;;;;;5.03;4.50;;;;;;;;;;5085712;28;20191;-79
2023/04/29 09:52:54;;;;;;;4.63;4.23;;;;;;;;;;5085476;28;20245;-79
2023/04/29 09:55:20;;;;;;;4.33;3.93;;;;;;;;;;5086499;28;20214;-78
2023/04/29 09:57:45;;;;;;;5.03;4.43;;;;;;;;;;5087216;28;20178;-78
2023/04/29 10:00:12;;;;;;;4.70;4.30;;;;;;;;;;5077023;28;20177;-78
2023/04/29 10:02:40;;;;;;;5.33;4.40;;;;;;;;;;5085678;28;20204;-78
2023/04/29 10:05:05;;;;;;;4.70;3.67;;;;;;;;;;5083191;28;20262;-78
2023/04/29 10:07:31;;;;;;;4.93;4.43;;;;;;;;;;5099708;28;20182;-78
2023/04/29 10:09:56;;;;;;;4.47;3.70;;;;;;;;;;5088340;28;20210;-79
2023/04/29 10:12:22;;;;;;;4.90;4.40;;;;;;;;;;5078587;28;20188;-78
2023/04/29 10:14:59;;;;;;;4.87;4.10;;;;;;;;;;5084606;28;20177;-78
2023/04/29 10:17:35;;;;;;;5.00;4.50;;;;;;;;;;5085302;28;20190;-78
2023/04/29 10:20:07;;;;;;;5.40;4.90;;;;;;;;;;5081712;28;20182;-79
2023/04/29 10:22:46;;;;;;;5.43;4.93;;;;;;;;;;5085193;28;20202;-78
2023/04/29 10:25:13;;;;;;;5.50;4.73;;;;;;;;;;5097133;28;20189;-78
2023/04/29 10:27:41;;;;;;;5.67;4.30;;;;;;;;;;5079295;28;20226;-79
2023/04/29 10:30:08;;;;;;;7.70;5.33;;;;;;;;;;5077588;28;20200;-78
2023/04/29 10:32:33;;;;;;;5.97;5.30;;;;;;;;;;5082289;28;20183;-78
2023/04/29 10:34:59;;;;;;;5.60;5.10;;;;;;;;;;5080277;28;20182;-78
2023/04/29 10:37:25;;;;;;;5.40;4.90;;;;;;;;;;5088160;28;20202;-78
2023/04/29 10:40:00;;;;;;;6.03;4.83;;;;;;;;;;5091919;28;20272;-78
2023/04/29 10:42:31;;;;;;;6.03;4.67;;;;;;;;;;5092692;28;20180;-79
2023/04/29 10:45:15;;;;;;;7.00;5.27;;;;;;;;;;5094975;28;20205;-78
2023/04/29 10:47:40;;;;;;;6.60;6.00;;;;;;;;;;5082004;28;20271;-78
2023/04/29 10:50:05;;;;;;;6.87;6.17;;;;;;;;;;5087621;28;20201;-78
2023/04/29 10:52:49;;;;;;;6.37;5.23;;;;;;;;;;5098046;28;20205;-78
2023/04/29 10:55:15;;;;;;;6.33;5.67;;;;;;;;;;5076364;28;20188;-78
2023/04/29 10:57:41;;;;;;;6.10;5.50;;;;;;;;;;5092436;28;20183;-78
2023/04/29 11:00:20;;;;;;;5.00;4.50;;;;;;;;;;5090490;28;20174;-78
2023/04/29 11:02:46;;;;;;;5.30;4.80;;;;;;;;;;5087089;28;20261;-78
2023/04/29 11:05:11;;;;;;;4.73;4.33;;;;;;;;;;5088460;28;20187;-78
2023/04/29 11:07:36;;;;;;;4.70;4.30;;;;;;;;;;5082455;28;20180;-78
2023/04/29 11:10:02;;;;;;;6.70;5.00;;;;;;;;;;5086045;28;20277;-79
2023/04/29 11:12:27;;;;;;;5.03;4.53;;;;;;;;;;5090619;28;20261;-78
2023/04/29 11:14:54;;;;;;;6.30;5.63;;;;;;;;;;5088554;28;20201;-79
2023/04/29 11:17:19;;;;;;;5.10;4.60;;;;;;;;;;5086534;28;20231;-78
2023/04/29 11:19:46;;;;;;;4.70;4.30;;;;;;;;;;5097582;28;20273;-78
2023/04/29 11:22:30;;;;;;;4.80;4.30;;;;;;;;;;5084664;28;20203;-79
2023/04/29 11:24:59;;;;;;;4.50;4.10;;;;;;;;;;5079425;28;20187;-79
2023/04/29 11:27:26;;;;;;;4.70;4.30;;;;;;;;;;5101985;28;20218;-78
2023/04/29 11:29:57;;;;;;;4.30;3.90;;;;;;;;;;5088356;28;20201;-79
2023/04/29 11:32:22;;;;;;;5.23;4.20;;;;;;;;;;5113361;27;20264;-78
2023/04/29 11:34:47;;;;;;;4.90;4.30;;;;;;;;;;5093921;28;20213;-79
2023/04/29 11:37:17;;;;;;;4.87;4.07;;;;;;;;;;5085742;28;20167;-78
2023/04/29 11:39:43;;;;;;;4.97;3.83;;;;;;;;;;5090342;28;20213;-78
2023/04/29 11:42:08;;;;;;;6.93;4.40;;;;;;;;;;5092656;28;20227;-78
2023/04/29 11:44:34;;;;;;;4.03;3.73;;;;;;;;;;5090270;28;20245;-79
2023/04/29 11:47:06;;;;;;;4.30;4.00;;;;;;;;;;5089838;28;20214;-78
2023/04/29 11:49:32;;;;;;;4.37;3.83;;;;;;;;;;5079724;28;20264;-78
2023/04/29 11:51:57;;;;;;;4.33;3.93;;;;;;;;;;5083291;28;20217;-78
2023/04/29 11:54:26;;;;;;;4.53;4.07;;;;;;;;;;5089300;28;20212;-78
2023/04/29 11:56:55;;;;;;;4.20;3.57;;;;;;;;;;5090135;28;20179;-78
2023/04/29 11:59:21;;;;;;;3.67;3.27;;;;;;;;;;5087745;28;20205;-79
2023/04/29 12:01:47;;;;;;;4.23;3.53;;;;;;;;;;5081611;28;20222;-79
2023/04/29 12:04:12;;;;;;;4.87;3.83;;;;;;;;;;5096084;28;20170;-78
2023/04/29 12:06:37;;;;;;;3.83;3.17;;;;;;;;;;5095399;28;20180;-78
2023/04/29 12:09:03;;;;;;;3.27;2.97;;;;;;;;;;5090931;28;20168;-79
2023/04/29 12:11:28;;;;;;;3.40;3.10;;;;;;;;;;5079192;28;20244;-79
2023/04/29 12:13:54;;;;;;;3.67;3.33;;;;;;;;;;5085997;28;20271;-78
2023/04/29 12:16:19;;;;;;;3.30;3.00;;;;;;;;;;5102817;27;20178;-78
2023/04/29 12:18:44;;;;;;;6.93;6.10;;;;;;;;;;5092243;28;20183;-78
2023/04/29 12:21:10;;;;;;;7.77;7.00;;;;;;;;;;5082871;28;20208;-78
2023/04/29 12:23:40;;;;;;;8.77;7.87;;;;;;;;;;5095255;28;20183;-79
2023/04/29 12:26:05;;;;;;;8.40;7.40;;;;;;;;;;5086162;28;20197;-78
2023/04/29 12:28:30;;;;;;;8.53;7.43;;;;;;;;;;5103592;28;20256;-78
2023/04/29 12:30:57;;;;;;;9.00;8.10;;;;;;;;;;5079577;28;20220;-78
2023/04/29 12:33:27;;;;;;;10.77;9.67;;;;;;;;;;5085343;28;20177;-78
2023/04/29 12:35:56;;;;;;;8.87;7.10;;;;;;;;;;5097741;27;20177;-78
2023/04/29 12:38:23;;;;;;;8.57;7.50;;;;;;;;;;5097613;28;20171;-78
2023/04/29 12:40:49;;;;;;;10.07;7.73;;;;;;;;;;5090156;28;20188;-78
2023/04/29 12:43:15;;;;;;;10.07;8.33;;;;;;;;;;5088434;28;20177;-78
2023/04/29 12:45:40;;;;;;;9.33;7.63;;;;;;;;;;5077523;28;20252;-78
2023/04/29 12:48:05;;;;;;;10.67;9.60;;;;;;;;;;5084716;28;20192;-78
2023/04/29 12:50:32;;;;;;;18.70;17.00;;;;;;;;;;5106778;27;20197;-79
2023/04/29 12:52:57;;;;;;;10.73;8.37;;;;;;;;;;5084270;28;20173;-78
2023/04/29 12:55:22;;;;;;;11.60;10.43;;;;;;;;;;5099339;28;20167;-78
2023/04/29 12:57:48;;;;;;;11.37;8.77;;;;;;;;;;5082890;28;20172;-77
2023/04/29 13:00:13;;;;;;;10.70;9.60;;;;;;;;;;5085808;28;20258;-78
2023/04/29 13:02:39;;;;;;;8.80;7.90;;;;;;;;;;5084563;28;20340;-79
2023/04/29 13:05:04;;;;;;;10.23;9.23;;;;;;;;;;5085780;28;20181;-78
2023/04/29 13:07:29;;;;;;;9.23;8.27;;;;;;;;;;5088110;28;20265;-78
2023/04/29 13:09:55;;;;;;;13.10;9.87;;;;;;;;;;5082951;28;20213;-79
2023/04/29 13:12:20;;;;;;;10.17;8.53;;;;;;;;;;5090509;28;20168;-78
2023/04/29 13:14:45;;;;;;;11.03;9.53;;;;;;;;;;5076471;28;20272;-78
2023/04/29 13:17:10;;;;;;;11.67;9.30;;;;;;;;;;5082440;28;20173;-78
2023/04/29 13:19:36;;;;;;;10.87;9.10;;;;;;;;;;5080945;28;20184;-79
2023/04/29 13:22:01;;;;;;;10.40;8.00;;;;;;;;;;5089684;28;20189;-79
2023/04/29 13:24:26;;;;;;;10.93;9.83;;;;;;;;;;5082455;28;20185;-78
2023/04/29 13:26:53;;;;;;;9.83;8.83;;;;;;;;;;5083626;28;20194;-78
2023/04/29 13:29:18;;;;;;;9.60;8.60;;;;;;;;;;5075346;28;20259;-78
2023/04/29 13:31:43;;;;;;;10.17;8.90;;;;;;;;;;5081151;28;20214;-78
2023/04/29 13:34:10;;;;;;;11.47;8.90;;;;;;;;;;5085652;28;20225;-78
2023/04/29 13:36:35;;;;;;;10.50;9.40;;;;;;;;;;5087865;28;20203;-78
2023/04/29 13:39:00;;;;;;;10.53;9.43;;;;;;;;;;5080798;28;20174;-78
2023/04/29 13:41:26;;;;;;;12.47;9.20;;;;;;;;;;5088343;28;20172;-78
2023/04/29 13:43:51;;;;;;;10.50;9.20;;;;;;;;;;5086043;28;20180;-78
2023/04/29 13:46:16;;;;;;;10.77;9.67;;;;;;;;;;5080340;28;20185;-78
2023/04/29 13:48:41;;;;;;;11.93;10.50;;;;;;;;;;5085231;28;20183;-78
2023/04/29 13:51:07;;;;;;;10.10;8.40;;;;;;;;;;5077611;28;20192;-78
2023/04/29 13:53:32;;;;;;;11.07;9.20;;;;;;;;;;5089721;28;20175;-79
2023/04/29 13:55:58;;;;;;;9.90;8.00;;;;;;;;;;5084810;28;20221;-78
2023/04/29 13:58:23;;;;;;;8.97;8.07;;;;;;;;;;5082891;28;20185;-78
2023/04/29 14:00:48;;;;;;;12.20;8.40;;;;;;;;;;5088757;28;20178;-78
2023/04/29 14:03:13;;;;;;;9.27;8.27;;;;;;;;;;5089440;28;20244;-78
2023/04/29 14:05:40;;;;;;;9.63;8.63;;;;;;;;;;5086444;28;20179;-78
2023/04/29 14:08:05;;;;;;;12.20;9.70;;;;;;;;;;5084024;28;20174;-78
2023/04/29 14:10:30;;;;;;;10.90;8.03;;;;;;;;;;5082337;28;20196;-78
2023/04/29 14:12:55;;;;;;;10.10;7.67;;;;;;;;;;5081857;28;20230;-79
2023/04/29 14:15:21;;;;;;;8.57;7.67;;;;;;;;;;5080578;28;20350;-78
2023/04/29 14:17:46;;;;;;;10.80;8.73;;;;;;;;;;5089345;28;20177;-78
2023/04/29 14:20:11;;;;;;;10.70;8.03;;;;;;;;;;5098463;27;20205;-78
2023/04/29 14:22:37;;;;;;;9.23;8.20;;;;;;;;;;5091527;28;20180;-78
2023/04/29 14:25:02;;;;;;;10.27;9.13;;;;;;;;;;5087318;28;20185;-78
2023/04/29 14:27:27;;;;;;;9.37;7.40;;;;;;;;;;5095554;28;20215;-78
2023/04/29 14:29:52;;;;;;;10.03;7.37;;;;;;;;;;5088439;28;20286;-78
2023/04/29 14:32:17;;;;;;;8.57;6.77;;;;;;;;;;5104206;27;20199;-78
2023/04/29 14:34:43;;;;;;;7.60;6.47;;;;;;;;;;5092338;28;20171;-78